Time;durP1;ratioP1;P1;durP2;ratioP2;P2;SDS_P1;SDS_P2;PMS_P1;PMS_P2;Temp;Humidity;BMP_temperature;BMP_pressure;BME280_temperature;BME280_humidity;BME280_pressure;Samples;Min_cycle;Max_cycle;Signal;HPM_P1;HPM_P2
2023/12/18 00:00:08;;;;;;;19.20;15.68;;;-0.20;99.90;;;;;;5053898;28;20633;-59
2023/12/18 00:02:35;;;;;;;19.13;17.13;;;-0.20;99.90;;;;;;5053631;28;20310;-58
2023/12/18 00:05:02;;;;;;;20.20;16.90;;;-0.30;99.90;;;;;;5048578;28;20230;-57
2023/12/18 00:07:30;;;;;;;20.35;15.68;;;-0.30;99.90;;;;;;5054163;28;20211;-59
2023/12/18 00:09:57;;;;;;;23.55;18.85;;;-0.20;99.90;;;;;;5054472;28;20208;-60
2023/12/18 00:12:24;;;;;;;27.02;20.15;;;-0.20;99.90;;;;;;5053941;28;20210;-60
2023/12/18 00:14:50;;;;;;;30.92;19.38;;;-0.20;99.90;;;;;;5054088;28;20210;-60
2023/12/18 00:17:17;;;;;;;27.95;21.58;;;-0.20;99.90;;;;;;5048852;28;20212;-60
2023/12/18 00:19:44;;;;;;;32.67;22.65;;;-0.20;99.90;;;;;;5053930;28;20695;-59
2023/12/18 00:22:11;;;;;;;40.88;23.90;;;-0.20;99.90;;;;;;5053712;28;20226;-60
2023/12/18 00:24:39;;;;;;;34.97;22.63;;;-0.20;99.90;;;;;;5053952;28;20213;-58
2023/12/18 00:27:06;;;;;;;33.70;22.90;;;-0.20;99.90;;;;;;5047660;28;20206;-60
2023/12/18 00:29:33;;;;;;;37.47;24.63;;;-0.20;99.90;;;;;;5050564;28;20207;-60
2023/12/18 00:31:59;;;;;;;33.70;23.38;;;-0.20;99.90;;;;;;5053691;28;20216;-59
2023/12/18 00:34:26;;;;;;;20.45;15.52;;;-0.20;99.90;;;;;;5047884;28;20315;-60
2023/12/18 00:36:53;;;;;;;16.17;12.13;;;-0.20;99.90;;;;;;5051349;28;20748;-57
2023/12/18 00:39:20;;;;;;;10.30;9.20;;;-0.20;99.90;;;;;;5048434;28;20683;-60
2023/12/18 00:41:48;;;;;;;10.45;9.40;;;-0.30;99.90;;;;;;5052946;28;20202;-61
2023/12/18 00:44:15;;;;;;;10.48;9.50;;;-0.30;99.90;;;;;;5051391;28;20701;-60
2023/12/18 00:46:41;;;;;;;10.57;9.68;;;-0.30;99.90;;;;;;5053117;28;20222;-59
2023/12/18 00:49:09;;;;;;;13.73;10.73;;;-0.30;99.90;;;;;;5050258;28;20866;-59
2023/12/18 00:51:36;;;;;;;13.30;11.88;;;-0.30;99.90;;;;;;5049448;28;20581;-58
2023/12/18 00:54:02;;;;;;;13.18;11.85;;;-0.30;99.90;;;;;;5053542;28;20209;-60
2023/12/18 00:56:30;;;;;;;16.77;14.27;;;-0.30;99.90;;;;;;5052973;28;20222;-59
2023/12/18 00:58:58;;;;;;;20.40;17.88;;;-0.30;99.90;;;;;;5053271;28;20282;-59
2023/12/18 01:01:25;;;;;;;20.20;15.98;;;-0.40;99.90;;;;;;5044836;28;20210;-58
2023/12/18 01:03:52;;;;;;;18.27;16.40;;;-0.40;99.90;;;;;;5050872;28;20309;-57
2023/12/18 01:06:18;;;;;;;20.90;17.58;;;-0.40;99.90;;;;;;5053415;28;20233;-60
2023/12/18 01:08:45;;;;;;;24.00;16.60;;;-0.40;99.90;;;;;;5052784;28;20220;-59
2023/12/18 01:11:12;;;;;;;18.92;16.48;;;-0.40;99.90;;;;;;5048958;28;20203;-59
2023/12/18 01:13:39;;;;;;;18.88;16.95;;;-0.40;99.90;;;;;;5042002;28;20294;-60
2023/12/18 01:16:07;;;;;;;17.27;15.48;;;-0.40;99.90;;;;;;5053567;28;20747;-59
2023/12/18 01:18:34;;;;;;;16.02;13.95;;;-0.50;99.90;;;;;;5053301;28;20217;-59
2023/12/18 01:21:03;;;;;;;17.50;15.90;;;-0.50;99.90;;;;;;5053713;28;20672;-59
2023/12/18 01:23:30;;;;;;;18.98;15.88;;;-0.50;99.90;;;;;;5053413;28;20297;-58
2023/12/18 01:25:56;;;;;;;15.90;14.40;;;-0.50;99.90;;;;;;5053231;28;20787;-60
2023/12/18 01:28:23;;;;;;;15.93;13.60;;;-0.50;99.90;;;;;;5052988;28;20210;-60
2023/12/18 01:30:50;;;;;;;15.32;10.88;;;-0.60;99.90;;;;;;5053088;28;20210;-57
2023/12/18 01:33:18;;;;;;;15.60;14.07;;;-0.60;99.90;;;;;;5052018;28;20202;-58
2023/12/18 01:35:45;;;;;;;15.82;14.25;;;-0.60;99.90;;;;;;5053028;28;20234;-61
2023/12/18 01:38:12;;;;;;;19.30;12.95;;;-0.60;99.90;;;;;;5053133;28;20202;-59
2023/12/18 01:40:39;;;;;;;16.27;13.98;;;-0.60;99.90;;;;;;5053290;28;20209;-58
2023/12/18 01:43:24;;;;;;;15.07;13.52;;;-0.60;99.90;;;;;;5055297;28;20604;-60
2023/12/18 01:45:56;;;;;;;16.50;14.50;;;-0.60;99.90;;;;;;5044867;28;20235;-57
2023/12/18 01:48:25;;;;;;;16.27;14.60;;;-0.60;99.90;;;;;;5039262;28;20207;-60
2023/12/18 01:50:54;;;;;;;15.80;14.30;;;-0.60;99.90;;;;;;5033174;28;20211;-60
2023/12/18 01:53:22;;;;;;;15.00;13.27;;;-0.70;99.90;;;;;;5049198;28;20289;-60
2023/12/18 01:55:49;;;;;;;16.30;14.70;;;-0.70;99.90;;;;;;5052416;28;20309;-60
2023/12/18 01:58:17;;;;;;;15.80;14.20;;;-0.70;99.90;;;;;;5052202;28;20293;-60
2023/12/18 02:00:44;;;;;;;16.33;14.55;;;-0.70;99.90;;;;;;5052932;28;20230;-60
2023/12/18 02:03:11;;;;;;;14.07;12.77;;;-0.70;99.90;;;;;;5052998;28;20221;-59
2023/12/18 02:05:40;;;;;;;17.60;14.30;;;-0.70;99.90;;;;;;5052396;28;20226;-58
2023/12/18 02:08:07;;;;;;;17.95;16.13;;;-0.70;99.90;;;;;;5052602;28;20747;-60
2023/12/18 02:10:35;;;;;;;15.07;13.50;;;-0.70;99.90;;;;;;5051637;28;20224;-58
2023/12/18 02:13:02;;;;;;;17.90;13.85;;;-0.80;99.90;;;;;;5049384;28;20293;-59
2023/12/18 02:15:28;;;;;;;15.98;13.18;;;-0.70;99.90;;;;;;5051787;28;20232;-58
2023/12/18 02:17:55;;;;;;;19.83;15.07;;;-0.80;99.90;;;;;;5051852;28;20206;-59
2023/12/18 02:20:22;;;;;;;15.43;13.93;;;-0.80;99.90;;;;;;5052489;28;20228;-60
2023/12/18 02:22:53;;;;;;;13.68;12.27;;;-0.80;99.90;;;;;;5052625;28;20316;-58
2023/12/18 02:25:20;;;;;;;17.98;16.08;;;-0.80;99.90;;;;;;5052091;28;20783;-60
2023/12/18 02:27:48;;;;;;;16.33;14.45;;;-0.80;99.90;;;;;;5052220;28;20217;-60
2023/12/18 02:30:16;;;;;;;13.05;11.75;;;-0.80;99.90;;;;;;5052391;28;20206;-60
2023/12/18 02:32:43;;;;;;;14.82;13.32;;;-0.80;99.90;;;;;;5052606;28;20236;-60
2023/12/18 02:35:10;;;;;;;19.38;14.85;;;-0.90;99.90;;;;;;5052255;28;20237;-60
2023/12/18 02:37:37;;;;;;;14.00;12.63;;;-0.90;99.90;;;;;;5051990;28;20650;-58
2023/12/18 02:40:06;;;;;;;14.80;13.38;;;-0.90;99.90;;;;;;5052100;28;20228;-60
2023/12/18 02:42:33;;;;;;;18.02;14.00;;;-0.90;99.90;;;;;;5051802;28;20213;-60
2023/12/18 02:45:01;;;;;;;13.60;12.30;;;-0.90;99.90;;;;;;5051843;28;20223;-60
2023/12/18 02:47:28;;;;;;;14.18;12.60;;;-0.90;99.90;;;;;;5051671;28;20202;-60
2023/12/18 02:49:55;;;;;;;13.23;12.00;;;-0.90;99.90;;;;;;5052058;28;20236;-56
2023/12/18 02:52:22;;;;;;;13.82;12.48;;;-0.90;99.90;;;;;;5052208;28;20213;-59
2023/12/18 02:54:48;;;;;;;13.65;12.25;;;-1.00;99.90;;;;;;5051901;28;20202;-60
2023/12/18 02:57:17;;;;;;;14.18;12.35;;;-1.00;99.90;;;;;;5051788;28;20207;-57
2023/12/18 02:59:44;;;;;;;15.52;13.45;;;-1.00;99.90;;;;;;5051632;28;20209;-59
2023/12/18 03:02:10;;;;;;;14.20;12.68;;;-1.00;99.90;;;;;;5052324;28;20297;-59
2023/12/18 03:04:40;;;;;;;16.90;15.13;;;-1.00;99.90;;;;;;5051587;28;20316;-60
2023/12/18 03:07:07;;;;;;;15.00;12.68;;;-1.00;99.90;;;;;;5051906;28;20213;-60
2023/12/18 03:09:34;;;;;;;16.17;14.50;;;-1.00;99.90;;;;;;5052442;28;20289;-59
2023/12/18 03:12:01;;;;;;;15.30;11.82;;;-1.00;99.90;;;;;;5055323;28;20672;-60
2023/12/18 03:14:29;;;;;;;14.85;12.75;;;-1.10;99.90;;;;;;5055450;28;20202;-60
2023/12/18 03:16:56;;;;;;;13.88;12.57;;;-1.00;99.90;;;;;;5055676;28;20237;-60
2023/12/18 03:19:23;;;;;;;15.80;14.23;;;-1.10;99.90;;;;;;5055482;28;20207;-60
2023/12/18 03:21:50;;;;;;;15.13;12.77;;;-1.10;99.90;;;;;;5055421;28;20210;-59
2023/12/18 03:24:17;;;;;;;15.85;12.70;;;-1.10;99.90;;;;;;5055295;28;20236;-60
2023/12/18 03:26:44;;;;;;;13.38;12.18;;;-1.10;99.90;;;;;;5054669;28;20226;-60
2023/12/18 03:29:11;;;;;;;13.82;12.52;;;-1.10;99.90;;;;;;5054726;28;20213;-59
2023/12/18 03:31:39;;;;;;;17.85;13.98;;;-1.10;99.90;;;;;;5055344;28;20296;-60
2023/12/18 03:34:06;;;;;;;14.82;13.05;;;-1.10;99.90;;;;;;5054991;28;20655;-58
2023/12/18 03:36:33;;;;;;;15.38;14.05;;;-1.10;99.90;;;;;;5054741;28;20245;-60
2023/12/18 03:38:59;;;;;;;14.32;12.95;;;-1.10;99.90;;;;;;5054381;28;20707;-60
2023/12/18 03:41:26;;;;;;;14.43;11.93;;;-1.10;99.90;;;;;;5054400;28;20217;-58
2023/12/18 03:43:53;;;;;;;17.23;13.98;;;-1.00;99.90;;;;;;5054704;28;20324;-60
2023/12/18 03:46:20;;;;;;;14.73;12.90;;;-1.00;99.90;;;;;;5054532;28;20232;-59
2023/12/18 03:48:48;;;;;;;14.32;12.82;;;-1.00;99.90;;;;;;5054322;28;20232;-59
2023/12/18 03:51:15;;;;;;;11.82;10.63;;;-1.00;99.90;;;;;;5054953;28;20268;-60
2023/12/18 03:53:41;;;;;;;13.45;10.85;;;-0.90;99.90;;;;;;5054441;28;20205;-58
2023/12/18 03:56:08;;;;;;;15.27;12.27;;;-0.90;99.90;;;;;;5055748;28;20665;-59
2023/12/18 03:58:36;;;;;;;12.75;10.60;;;-0.90;99.90;;;;;;5055157;28;20652;-61
2023/12/18 04:01:03;;;;;;;11.52;10.38;;;-0.90;99.90;;;;;;5053874;28;20218;-61
2023/12/18 04:03:30;;;;;;;13.95;12.55;;;-0.90;99.90;;;;;;5053792;28;20317;-61
2023/12/18 04:05:58;;;;;;;12.98;11.80;;;-0.90;99.90;;;;;;5053571;28;20254;-61
2023/12/18 04:08:25;;;;;;;14.50;13.15;;;-0.80;99.90;;;;;;5053608;28;20207;-61
2023/12/18 04:10:52;;;;;;;14.52;12.60;;;-0.80;99.90;;;;;;5053867;28;20210;-60
2023/12/18 04:13:19;;;;;;;20.20;14.93;;;-0.80;99.90;;;;;;5053853;28;20642;-60
2023/12/18 04:15:45;;;;;;;13.00;11.55;;;-0.80;99.90;;;;;;5053728;28;20233;-61
2023/12/18 04:18:12;;;;;;;18.67;14.63;;;-0.80;99.90;;;;;;5053206;28;20212;-61
2023/12/18 04:20:39;;;;;;;15.82;14.05;;;-0.70;99.90;;;;;;5051827;28;20225;-60
2023/12/18 04:23:07;;;;;;;15.48;13.85;;;-0.70;99.90;;;;;;5052777;28;20213;-61
2023/12/18 04:25:35;;;;;;;20.40;16.50;;;-0.70;99.90;;;;;;5052750;28;20226;-61
2023/12/18 04:28:02;;;;;;;15.80;13.20;;;-0.70;99.90;;;;;;5053088;28;20209;-61
2023/12/18 04:30:29;;;;;;;17.30;15.43;;;-0.70;99.90;;;;;;5053369;28;20217;-61
2023/12/18 04:32:55;;;;;;;16.80;14.80;;;-0.70;99.90;;;;;;5053071;28;20203;-60
2023/12/18 04:35:22;;;;;;;21.02;17.17;;;-0.60;99.90;;;;;;5075491;22;20882;-57
2023/12/18 04:37:49;;;;;;;24.23;16.77;;;-0.60;99.90;;;;;;5052562;28;20237;-58
2023/12/18 04:40:17;;;;;;;24.48;17.10;;;-0.60;99.90;;;;;;5053884;28;20202;-57
2023/12/18 04:42:44;;;;;;;19.85;16.70;;;-0.60;99.90;;;;;;5053756;28;20210;-58
2023/12/18 04:45:12;;;;;;;21.33;17.27;;;-0.60;99.90;;;;;;5051999;28;20230;-58
2023/12/18 04:47:38;;;;;;;27.35;18.23;;;-0.60;99.90;;;;;;5038241;28;20207;-58
2023/12/18 04:50:06;;;;;;;22.33;16.90;;;-0.60;99.90;;;;;;5033455;28;20209;-58
2023/12/18 04:52:33;;;;;;;19.67;15.80;;;-0.60;99.90;;;;;;5033583;28;20299;-57
2023/12/18 04:55:00;;;;;;;21.63;16.25;;;-0.50;99.90;;;;;;5033350;28;20703;-58
2023/12/18 04:57:28;;;;;;;19.55;15.82;;;-0.60;99.90;;;;;;5038641;28;20210;-57
2023/12/18 04:59:55;;;;;;;18.50;16.23;;;-0.60;99.90;;;;;;5044601;28;20700;-57
2023/12/18 05:02:21;;;;;;;17.00;14.57;;;-0.60;99.90;;;;;;5053171;28;20306;-57
2023/12/18 05:04:48;;;;;;;16.85;15.00;;;-0.60;99.90;;;;;;5053122;28;20313;-57
2023/12/18 05:07:15;;;;;;;18.63;16.38;;;-0.60;99.90;;;;;;5053219;28;20216;-57
2023/12/18 05:09:42;;;;;;;15.55;14.00;;;-0.60;99.90;;;;;;5053309;28;20301;-57
2023/12/18 05:12:09;;;;;;;21.27;17.55;;;-0.60;99.90;;;;;;5053269;28;20586;-54
2023/12/18 05:14:37;;;;;;;18.25;13.57;;;-0.60;99.90;;;;;;5053002;28;20228;-58
2023/12/18 05:17:04;;;;;;;17.35;14.30;;;-0.50;99.90;;;;;;5053128;28;20666;-54
2023/12/18 05:19:31;;;;;;;17.02;14.63;;;-0.60;99.90;;;;;;5052952;28;20294;-54
2023/12/18 05:21:58;;;;;;;18.27;16.15;;;-0.60;99.90;;;;;;5053439;28;20760;-56
2023/12/18 05:24:25;;;;;;;17.33;14.65;;;-0.60;99.90;;;;;;5053310;28;20222;-57
2023/12/18 05:26:52;;;;;;;17.20;13.55;;;-0.60;99.90;;;;;;5052858;28;20230;-58
2023/12/18 05:29:18;;;;;;;16.83;13.68;;;-0.70;99.90;;;;;;5053123;28;20302;-58
2023/12/18 05:31:47;;;;;;;19.73;13.80;;;-0.70;99.90;;;;;;5052831;28;20760;-58
2023/12/18 05:34:14;;;;;;;17.50;14.30;;;-0.70;99.90;;;;;;5048282;28;20195;-57
2023/12/18 05:36:41;;;;;;;17.52;13.95;;;-0.80;99.90;;;;;;5047985;28;20313;-57
2023/12/18 05:39:08;;;;;;;15.60;14.02;;;-0.80;99.90;;;;;;5052232;28;20297;-56
2023/12/18 05:41:34;;;;;;;16.08;13.18;;;-0.90;99.90;;;;;;5052830;28;20206;-58
2023/12/18 05:44:01;;;;;;;14.00;12.63;;;-0.90;99.90;;;;;;5048890;28;20425;-54
2023/12/18 05:46:28;;;;;;;21.90;14.07;;;-0.90;99.90;;;;;;5032761;28;20230;-59
2023/12/18 05:48:56;;;;;;;16.25;14.75;;;-0.90;99.90;;;;;;5032466;28;20289;-58
2023/12/18 05:51:24;;;;;;;17.52;15.32;;;-0.90;99.90;;;;;;5032869;28;20270;-58
2023/12/18 05:53:50;;;;;;;14.82;13.20;;;-1.00;99.90;;;;;;5032859;28;20213;-58
2023/12/18 05:56:17;;;;;;;14.00;12.50;;;-0.90;99.90;;;;;;5032140;28;20330;-59
2023/12/18 05:58:44;;;;;;;18.08;14.60;;;-1.00;99.90;;;;;;5032355;28;20294;-58
2023/12/18 06:01:11;;;;;;;14.18;12.77;;;-1.00;99.90;;;;;;5032736;28;20210;-57
2023/12/18 06:03:38;;;;;;;14.73;13.25;;;-1.00;99.90;;;;;;5032816;28;20207;-59
2023/12/18 06:06:07;;;;;;;18.60;14.15;;;-1.00;99.90;;;;;;5032415;28;20233;-57
2023/12/18 06:08:34;;;;;;;16.42;13.90;;;-1.00;99.90;;;;;;5031821;28;20217;-56
2023/12/18 06:11:01;;;;;;;19.77;15.30;;;-1.00;99.90;;;;;;5023652;28;20291;-57
2023/12/18 06:13:28;;;;;;;16.23;13.55;;;-1.00;99.90;;;;;;5024288;28;20206;-54
2023/12/18 06:15:55;;;;;;;19.05;16.98;;;-1.00;99.90;;;;;;5024151;28;20325;-57
2023/12/18 06:18:22;;;;;;;15.38;13.60;;;-1.10;99.90;;;;;;5022666;28;20239;-58
2023/12/18 06:20:49;;;;;;;21.02;16.83;;;-1.00;99.90;;;;;;5021451;28;20287;-58
2023/12/18 06:23:17;;;;;;;17.15;15.40;;;-1.00;99.90;;;;;;5017631;28;20214;-56
2023/12/18 06:25:44;;;;;;;17.30;14.50;;;-1.00;99.90;;;;;;5012712;28;20235;-59
2023/12/18 06:28:11;;;;;;;17.67;14.57;;;-1.10;99.90;;;;;;5012851;28;20298;-59
2023/12/18 06:30:38;;;;;;;20.40;14.40;;;-1.10;99.90;;;;;;5012741;28;20209;-55
2023/12/18 06:33:05;;;;;;;19.88;15.15;;;-1.10;99.90;;;;;;5014847;28;20218;-59
2023/12/18 06:35:32;;;;;;;18.60;15.15;;;-1.10;99.90;;;;;;5020623;28;20227;-56
2023/12/18 06:37:58;;;;;;;19.10;14.52;;;-1.20;99.90;;;;;;5022333;28;20687;-57
2023/12/18 06:40:27;;;;;;;17.50;13.10;;;-1.20;99.90;;;;;;5026625;28;20210;-57
2023/12/18 06:42:53;;;;;;;18.02;14.73;;;-1.20;99.90;;;;;;5023174;28;20200;-57
2023/12/18 06:45:20;;;;;;;21.40;13.55;;;-1.30;99.90;;;;;;5041822;28;20313;-59
2023/12/18 06:47:47;;;;;;;18.92;15.35;;;-1.30;99.90;;;;;;5052331;28;20289;-57
2023/12/18 06:50:14;;;;;;;18.13;14.15;;;-1.30;99.90;;;;;;5056132;28;20209;-59
2023/12/18 06:52:41;;;;;;;16.13;13.88;;;-1.30;99.90;;;;;;5056595;28;20252;-58
2023/12/18 06:55:09;;;;;;;16.92;14.27;;;-1.40;99.90;;;;;;5056034;28;20264;-59
2023/12/18 06:57:37;;;;;;;19.55;16.50;;;-1.40;99.90;;;;;;5055933;28;20285;-57
2023/12/18 07:00:05;;;;;;;19.55;15.05;;;-1.40;99.90;;;;;;5055996;28;20218;-59
2023/12/18 07:02:31;;;;;;;18.52;14.82;;;-1.50;99.90;;;;;;5055868;28;20658;-55
2023/12/18 07:04:58;;;;;;;19.50;15.10;;;-1.50;99.90;;;;;;5055666;28;20228;-57
2023/12/18 07:07:25;;;;;;;18.85;13.95;;;-1.50;99.90;;;;;;5055719;28;20756;-57
2023/12/18 07:09:52;;;;;;;20.33;14.20;;;-1.60;99.90;;;;;;5044070;28;20210;-58
2023/12/18 07:12:19;;;;;;;24.15;16.60;;;-1.60;99.90;;;;;;5055586;28;20264;-60
2023/12/18 07:14:47;;;;;;;17.98;14.93;;;-1.60;99.90;;;;;;5031623;28;20202;-60
2023/12/18 07:17:14;;;;;;;16.75;14.57;;;-1.60;99.90;;;;;;5024526;28;20214;-58
2023/12/18 07:19:41;;;;;;;18.38;15.73;;;-1.60;99.90;;;;;;5042919;28;20207;-60
2023/12/18 07:22:07;;;;;;;15.70;14.10;;;-1.50;99.90;;;;;;5054342;28;20583;-59
2023/12/18 07:24:34;;;;;;;15.25;13.75;;;-1.60;99.90;;;;;;5037262;28;20220;-60
2023/12/18 07:27:02;;;;;;;15.93;13.88;;;-1.60;99.90;;;;;;5024464;28;20305;-56
2023/12/18 07:29:28;;;;;;;15.82;14.07;;;-1.60;99.90;;;;;;5015571;28;20585;-58
2023/12/18 07:31:57;;;;;;;18.05;13.68;;;-1.60;99.90;;;;;;5043113;28;20214;-59
2023/12/18 07:34:24;;;;;;;15.05;12.75;;;-1.60;99.90;;;;;;5042707;28;20211;-57
2023/12/18 07:36:51;;;;;;;17.75;15.15;;;-1.70;99.90;;;;;;5034073;28;20623;-58
2023/12/18 07:39:18;;;;;;;18.90;14.90;;;-1.70;99.90;;;;;;5034871;28;20207;-58
2023/12/18 07:41:45;;;;;;;18.55;15.52;;;-1.70;99.90;;;;;;5034916;28;20293;-58
2023/12/18 07:44:11;;;;;;;15.95;14.07;;;-1.70;99.90;;;;;;5035013;28;20206;-55
2023/12/18 07:46:38;;;;;;;17.25;15.00;;;-1.70;99.90;;;;;;5034626;28;20230;-58
2023/12/18 07:49:06;;;;;;;17.30;15.50;;;-1.70;99.90;;;;;;5034818;28;20289;-57
2023/12/18 07:51:36;;;;;;;19.17;16.92;;;-1.70;99.90;;;;;;5034675;28;20211;-54
2023/12/18 07:54:03;;;;;;;19.98;17.55;;;-1.70;99.90;;;;;;5034953;28;20203;-57
2023/12/18 07:56:30;;;;;;;29.35;19.90;;;-1.60;99.90;;;;;;5033376;28;20604;-57
2023/12/18 07:58:57;;;;;;;19.35;16.50;;;-1.60;99.90;;;;;;5034449;28;20243;-59
2023/12/18 08:01:24;;;;;;;23.20;18.13;;;-1.60;99.90;;;;;;5038790;28;20839;-59
2023/12/18 08:03:51;;;;;;;20.40;17.05;;;-1.60;99.90;;;;;;5046189;28;20203;-60
2023/12/18 08:06:19;;;;;;;22.45;17.25;;;-1.50;99.90;;;;;;5054540;28;20674;-59
2023/12/18 08:08:46;;;;;;;24.10;17.42;;;-1.50;99.90;;;;;;5054245;28;20217;-56
2023/12/18 08:11:12;;;;;;;21.27;17.85;;;-1.50;99.90;;;;;;5054519;28;20691;-60
2023/12/18 08:13:40;;;;;;;18.17;16.17;;;-1.50;99.90;;;;;;5054330;28;20306;-60
2023/12/18 08:16:08;;;;;;;19.95;16.13;;;-1.40;99.90;;;;;;5054302;28;20237;-58
2023/12/18 08:18:35;;;;;;;16.65;14.55;;;-1.40;99.90;;;;;;5054309;28;20281;-59
2023/12/18 08:21:03;;;;;;;23.90;18.30;;;-1.40;99.90;;;;;;5054321;28;20212;-60
2023/12/18 08:23:31;;;;;;;19.92;17.38;;;-1.30;99.90;;;;;;5054195;28;20210;-59
2023/12/18 08:25:58;;;;;;;23.85;20.13;;;-1.30;99.90;;;;;;5053882;28;20256;-60
2023/12/18 08:28:24;;;;;;;20.55;18.48;;;-1.20;99.90;;;;;;5053910;28;20202;-58
2023/12/18 08:30:51;;;;;;;23.42;20.92;;;-1.20;99.90;;;;;;5054267;28;20209;-56
2023/12/18 08:33:18;;;;;;;24.30;20.73;;;-1.10;99.90;;;;;;5049515;28;20207;-55
2023/12/18 08:35:45;;;;;;;28.35;20.80;;;-1.10;99.90;;;;;;5045731;28;20226;-57
2023/12/18 08:38:12;;;;;;;23.23;19.75;;;-1.00;99.90;;;;;;5053749;28;20304;-54
2023/12/18 08:40:40;;;;;;;25.15;20.67;;;-1.00;99.90;;;;;;5037294;28;20294;-58
2023/12/18 08:43:07;;;;;;;25.38;21.60;;;-0.90;99.90;;;;;;5033576;28;20294;-58
2023/12/18 08:45:34;;;;;;;23.27;19.05;;;-0.80;99.90;;;;;;5033605;28;20230;-57
2023/12/18 08:48:01;;;;;;;26.17;20.00;;;-0.70;99.90;;;;;;5033153;28;20677;-60
2023/12/18 08:50:28;;;;;;;25.10;21.50;;;-0.60;99.90;;;;;;5033413;28;20207;-60
2023/12/18 08:52:55;;;;;;;20.48;16.52;;;-0.60;99.90;;;;;;5031074;28;20206;-60
2023/12/18 08:55:22;;;;;;;27.63;18.88;;;-0.50;99.90;;;;;;5019677;28;20307;-60
2023/12/18 08:57:50;;;;;;;23.38;18.60;;;-0.50;99.90;;;;;;5028259;28;20230;-60
2023/12/18 09:00:17;;;;;;;19.88;17.73;;;-0.40;99.90;;;;;;5032701;28;20205;-60
2023/12/18 09:02:44;;;;;;;28.98;18.55;;;-0.40;99.90;;;;;;5033352;28;20209;-60
2023/12/18 09:05:11;;;;;;;22.60;19.38;;;-0.30;99.90;;;;;;5040952;28;20321;-60
2023/12/18 09:07:37;;;;;;;19.90;17.90;;;-0.30;99.90;;;;;;5039152;28;20294;-58
2023/12/18 09:10:05;;;;;;;27.70;20.63;;;-0.30;99.90;;;;;;5041770;28;20203;-58
2023/12/18 09:12:32;;;;;;;31.10;20.45;;;-0.30;99.90;;;;;;5039864;28;20711;-60
2023/12/18 09:15:00;;;;;;;25.00;20.63;;;-0.30;99.90;;;;;;5039096;28;20289;-60
2023/12/18 09:17:28;;;;;;;22.15;19.75;;;-0.20;99.90;;;;;;5031919;28;20393;-60
2023/12/18 09:19:55;;;;;;;23.30;18.20;;;-0.20;99.90;;;;;;5032562;28;20207;-59
2023/12/18 09:22:22;;;;;;;22.77;19.27;;;-0.10;99.90;;;;;;5040690;28;20297;-60
2023/12/18 09:24:48;;;;;;;24.00;19.92;;;-0.10;99.90;;;;;;5036180;28;20298;-60
2023/12/18 09:27:15;;;;;;;19.33;17.27;;;-0.10;99.90;;;;;;5027946;28;20289;-59
2023/12/18 09:29:42;;;;;;;20.88;18.60;;;0.00;99.90;;;;;;5029907;28;20206;-60
2023/12/18 09:32:10;;;;;;;24.27;19.55;;;0.00;99.90;;;;;;5031576;28;20207;-60
2023/12/18 09:34:37;;;;;;;19.08;16.33;;;0.00;99.90;;;;;;5033252;28;20275;-59
2023/12/18 09:37:04;;;;;;;22.52;17.70;;;0.00;99.90;;;;;;5023960;28;20231;-59
2023/12/18 09:39:31;;;;;;;18.63;16.00;;;0.00;99.90;;;;;;5025697;28;20293;-57
2023/12/18 09:42:02;;;;;;;21.30;16.85;;;0.00;99.90;;;;;;5027963;28;20209;-59
2023/12/18 09:44:31;;;;;;;19.27;17.45;;;0.00;99.90;;;;;;5031471;28;20214;-58
2023/12/18 09:46:58;;;;;;;17.90;16.20;;;0.00;99.90;;;;;;5030977;28;20231;-59
2023/12/18 09:49:27;;;;;;;17.63;15.90;;;0.00;99.90;;;;;;5033857;28;20298;-59
2023/12/18 09:51:54;;;;;;;19.65;17.30;;;0.00;99.90;;;;;;5032349;28;20714;-59
2023/12/18 09:54:22;;;;;;;20.30;15.93;;;0.00;99.90;;;;;;5036142;28;20647;-56
2023/12/18 09:56:51;;;;;;;19.42;16.20;;;0.00;99.90;;;;;;5036461;28;20222;-57
2023/12/18 09:59:18;;;;;;;17.55;15.52;;;0.00;99.90;;;;;;5033233;28;20742;-58
2023/12/18 10:01:45;;;;;;;17.42;14.70;;;0.00;99.90;;;;;;5039993;28;20293;-59
2023/12/18 10:04:12;;;;;;;21.08;16.25;;;0.00;99.90;;;;;;5046139;28;20302;-59
2023/12/18 10:06:41;;;;;;;18.80;16.00;;;0.00;99.90;;;;;;5036443;28;20241;-58
2023/12/18 10:09:13;;;;;;;21.70;18.33;;;0.00;99.90;;;;;;5031323;28;20202;-57
2023/12/18 10:11:44;;;;;;;17.77;16.08;;;0.00;99.90;;;;;;5031490;28;20298;-58
2023/12/18 10:14:13;;;;;;;21.48;17.77;;;0.10;99.90;;;;;;5034039;28;20217;-57
2023/12/18 10:16:40;;;;;;;17.90;16.08;;;0.10;99.90;;;;;;5043037;28;20313;-57
2023/12/18 10:19:08;;;;;;;17.30;14.82;;;0.10;99.90;;;;;;5048159;28;20297;-55
2023/12/18 10:21:35;;;;;;;19.45;16.45;;;0.20;99.90;;;;;;5032391;28;20216;-56
2023/12/18 10:24:04;;;;;;;21.50;15.68;;;0.20;99.90;;;;;;5017664;28;20207;-58
2023/12/18 10:26:31;;;;;;;21.13;18.83;;;0.20;99.90;;;;;;5041760;28;20243;-57
2023/12/18 10:28:58;;;;;;;17.27;15.45;;;0.30;99.90;;;;;;5036221;28;20206;-58
2023/12/18 10:31:25;;;;;;;20.88;18.60;;;0.40;99.90;;;;;;5036136;28;20207;-58
2023/12/18 10:33:53;;;;;;;18.58;16.17;;;0.50;99.90;;;;;;5035390;28;20210;-56
2023/12/18 10:36:20;;;;;;;15.82;14.27;;;0.60;99.90;;;;;;5058226;22;20235;-61
2023/12/18 10:38:50;;;;;;;19.50;17.35;;;0.70;99.90;;;;;;5033737;28;20297;-61
2023/12/18 10:41:20;;;;;;;19.33;16.30;;;0.80;99.90;;;;;;5035102;28;20217;-61
2023/12/18 10:43:48;;;;;;;19.35;17.45;;;0.90;99.90;;;;;;5028853;28;20212;-60
2023/12/18 10:46:16;;;;;;;18.63;16.52;;;1.10;99.90;;;;;;5034263;28;20317;-60
2023/12/18 10:48:43;;;;;;;17.75;15.93;;;1.30;99.90;;;;;;5031923;28;20221;-60
2023/12/18 10:51:10;;;;;;;20.95;17.77;;;1.40;99.90;;;;;;5034260;28;20206;-61
2023/12/18 10:53:38;;;;;;;17.83;15.60;;;1.60;99.90;;;;;;5034070;28;20199;-61
2023/12/18 10:56:06;;;;;;;18.90;17.20;;;1.80;99.90;;;;;;5034404;28;20234;-60
2023/12/18 10:58:35;;;;;;;18.73;16.60;;;1.90;99.90;;;;;;5033930;28;20211;-60
2023/12/18 11:01:04;;;;;;;20.77;17.55;;;2.00;99.90;;;;;;5033148;28;20298;-60
2023/12/18 11:03:31;;;;;;;17.10;15.23;;;2.10;99.90;;;;;;5027464;28;20211;-59
2023/12/18 11:05:59;;;;;;;18.27;15.35;;;2.20;99.90;;;;;;5033627;28;20309;-61
2023/12/18 11:08:26;;;;;;;18.95;17.02;;;2.20;99.90;;;;;;5023728;28;20213;-61
2023/12/18 11:10:54;;;;;;;17.05;15.45;;;2.30;99.90;;;;;;5033781;28;20210;-60
2023/12/18 11:13:26;;;;;;;17.00;15.30;;;2.30;99.90;;;;;;5032991;28;20377;-59
2023/12/18 11:16:05;;;;;;;23.25;15.60;;;2.30;99.90;;;;;;5033444;28;20211;-60
2023/12/18 11:18:44;;;;;;;19.20;16.10;;;2.30;99.90;;;;;;5023874;28;20210;-60
2023/12/18 11:21:11;;;;;;;19.60;17.27;;;2.30;99.90;;;;;;5034102;28;20585;-61
2023/12/18 11:23:40;;;;;;;17.88;15.60;;;2.30;99.90;;;;;;5033589;28;20203;-59
2023/12/18 11:26:10;;;;;;;19.33;17.30;;;2.30;99.90;;;;;;5033282;28;20223;-61
2023/12/18 11:28:36;;;;;;;20.85;18.85;;;2.30;99.90;;;;;;5032817;28;20207;-61
2023/12/18 11:31:08;;;;;;;19.63;17.55;;;2.30;99.90;;;;;;5033463;28;20227;-59
2023/12/18 11:33:35;;;;;;;19.20;17.15;;;2.30;99.90;;;;;;5033147;28;20207;-61
2023/12/18 11:36:02;;;;;;;19.05;17.15;;;2.20;99.90;;;;;;5033531;28;20567;-61
2023/12/18 11:38:33;;;;;;;20.20;17.73;;;2.20;99.90;;;;;;5032804;28;20207;-61
2023/12/18 11:41:01;;;;;;;19.02;17.05;;;2.20;99.90;;;;;;5033556;28;20207;-59
2023/12/18 11:43:38;;;;;;;20.20;18.15;;;2.20;99.90;;;;;;5033614;28;20301;-60
2023/12/18 11:46:07;;;;;;;17.20;15.63;;;2.20;99.90;;;;;;5033369;28;20226;-61
2023/12/18 11:48:35;;;;;;;18.90;16.55;;;2.20;99.90;;;;;;5033017;28;20214;-61
2023/12/18 11:51:03;;;;;;;21.85;18.58;;;2.20;99.90;;;;;;5032863;28;20306;-58
2023/12/18 11:53:34;;;;;;;18.42;16.63;;;2.20;99.90;;;;;;5033115;28;20681;-58
2023/12/18 11:56:07;;;;;;;18.42;16.65;;;2.20;99.90;;;;;;5030420;28;20583;-57
2023/12/18 11:58:35;;;;;;;22.08;18.63;;;2.30;99.90;;;;;;5032937;28;20207;-58
2023/12/18 12:01:02;;;;;;;18.45;16.55;;;2.40;99.90;;;;;;5033118;28;20298;-61
2023/12/18 12:03:32;;;;;;;20.52;16.90;;;2.50;99.90;;;;;;5032872;28;20334;-61
2023/12/18 12:06:00;;;;;;;17.35;15.45;;;2.60;99.90;;;;;;5033495;28;20285;-60
2023/12/18 12:08:27;;;;;;;19.27;17.40;;;2.70;99.90;;;;;;5031649;28;20211;-61
2023/12/18 12:10:56;;;;;;;18.95;16.80;;;2.80;99.90;;;;;;5032987;28;20210;-58
2023/12/18 12:13:24;;;;;;;17.50;15.90;;;3.10;99.90;;;;;;5024027;28;20211;-59
2023/12/18 12:15:56;;;;;;;16.30;14.60;;;3.40;99.90;;;;;;5028920;28;20203;-61
2023/12/18 12:18:23;;;;;;;19.63;17.55;;;3.80;99.90;;;;;;5027382;28;20214;-61
2023/12/18 12:20:51;;;;;;;18.42;15.90;;;4.20;99.90;;;;;;5025116;28;20567;-59
2023/12/18 12:23:18;;;;;;;15.60;14.20;;;4.60;99.90;;;;;;5029410;28;20207;-58
2023/12/18 12:25:47;;;;;;;16.67;14.98;;;5.10;99.90;;;;;;5024433;28;20214;-61
2023/12/18 12:28:15;;;;;;;15.27;13.70;;;5.60;99.90;;;;;;5029979;28;20281;-61
2023/12/18 12:30:42;;;;;;;16.27;14.68;;;6.00;99.90;;;;;;5030531;28;20210;-61